< Typhoon 198612 1986 Season Typhoon 198614 >
Typhoon 198613 (VERA)
General InformationTrack Information on Google MapsDetailed Wind InformationList of All Images || NewsDisaster Info.ResourceGoogle EarthGE AnimationAtom FeedGeoJSON
Detalied Best Track (Time Zone = UTC)
Year Month Day Hour Lat. Long. Pressure (hPa) Wind (kt) Class Image Chart
1986 8 13 00 17.0 133.5 998 0 2 Image Chart
1986 8 13 06 17.0 133.0 998 0 2 Image Chart
1986 8 13 12 17.0 132.4 998 0 2 Image Chart
1986 8 13 18 17.1 131.7 998 0 2 Image Chart
1986 8 14 00 17.2 131.2 998 0 2 Image Chart
1986 8 14 06 17.3 130.8 998 0 2 Image Chart
1986 8 14 12 17.4 130.4 998 0 2 Image Chart
1986 8 14 18 17.6 130.1 996 0 2 Image Chart
1986 8 15 00 17.8 129.8 996 0 2 Image Chart
1986 8 15 06 18.2 129.6 994 0 2 Image Chart
1986 8 15 12 18.5 129.5 994 0 2 Image Chart
1986 8 15 18 18.8 129.5 992 35 3 Image Chart
1986 8 16 00 19.1 129.7 990 35 3 Image Chart
1986 8 16 06 18.9 129.9 985 35 3 Image Chart
1986 8 16 12 18.6 130.0 985 45 3 Image Chart
1986 8 16 18 18.1 130.5 985 45 3 Image Chart
1986 8 17 00 18.1 132.0 980 45 3 Image Chart
1986 8 17 06 18.5 133.8 980 45 3 Image Chart
1986 8 17 12 19.5 135.2 980 45 3 Image Chart
1986 8 17 18 21.0 136.4 985 45 3 Image Chart
1986 8 18 00 22.0 137.1 985 45 3 Image Chart
1986 8 18 06 22.7 137.5 985 45 3 Image Chart
1986 8 18 12 23.4 137.9 985 45 3 Image Chart
1986 8 18 18 23.4 137.5 985 45 3 Image Chart
1986 8 19 00 22.7 137.9 985 45 3 Image Chart
1986 8 19 06 22.6 139.2 980 45 3 Image Chart
1986 8 19 12 22.6 140.3 975 45 3 Image Chart
1986 8 19 18 21.9 140.9 970 60 4 Image Chart
1986 8 20 00 21.3 141.5 965 65 5 Image Chart
1986 8 20 06 21.3 142.1 965 65 5 Image Chart
1986 8 20 12 21.3 142.5 960 65 5 Image Chart
1986 8 20 18 21.3 143.0 960 70 5 Image Chart
1986 8 21 00 21.3 143.5 955 70 5 Image Chart
1986 8 21 06 21.5 144.0 950 75 5 Image Chart
1986 8 21 12 21.6 144.5 945 85 5 Image Chart
1986 8 21 18 21.8 145.0 935 85 5 Image Chart
1986 8 22 00 22.0 145.5 925 90 5 Image Chart
1986 8 22 06 22.4 145.3 925 90 5 Image Chart
1986 8 22 12 22.5 144.9 930 90 5 Image Chart
1986 8 22 18 22.3 144.6 935 90 5 Image Chart
1986 8 23 00 22.1 144.3 940 90 5 Image Chart
1986 8 23 06 22.1 143.5 945 80 5 Image Chart
1986 8 23 12 22.2 142.4 945 80 5 Image Chart
1986 8 23 18 22.2 141.3 945 80 5 Image Chart
1986 8 24 00 22.3 140.0 945 80 5 Image Chart
1986 8 24 06 22.5 138.6 945 80 5 Image Chart
1986 8 24 12 22.9 136.9 940 85 5 Image Chart
1986 8 24 18 23.4 135.3 945 85 5 Image Chart
1986 8 25 00 23.9 133.6 950 80 5 Image Chart
1986 8 25 06 24.4 131.9 950 80 5 Image Chart
1986 8 25 12 25.1 130.1 950 85 5 Image Chart
1986 8 25 18 25.7 128.5 950 85 5 Image Chart
1986 8 26 00 26.2 127.2 950 85 5 Image Chart
1986 8 26 06 26.7 126.0 950 80 5 Image Chart
1986 8 26 12 27.3 125.3 950 75 5 Image Chart
1986 8 26 18 28.0 124.8 955 75 5 Image Chart
1986 8 27 00 28.9 124.4 955 75 5 Image Chart
1986 8 27 06 29.8 124.2 960 75 5 Image Chart
1986 8 27 12 30.8 124.3 960 75 5 Image Chart
1986 8 27 18 32.0 124.5 960 70 5 Image Chart
1986 8 28 00 33.9 125.1 960 65 5 Image Chart
1986 8 28 06 35.8 126.0 965 65 5 Image Chart
1986 8 28 12 38.0 127.8 975 55 4 Image Chart
1986 8 28 18 39.0 129.0 976 0 6 Image Chart
1986 8 29 00 40.0 130.0 976 0 6 Image Chart
1986 8 29 06 41.0 131.0 980 0 6 Image Chart
1986 8 29 12 42.0 132.0 984 0 6 Image Chart
1986 8 29 18 43.3 133.1 988 0 6 Image Chart
1986 8 30 00 44.6 134.4 988 0 6 Image Chart
1986 8 30 06 46.0 135.8 990 0 6 Image Chart
1986 8 30 12 47.2 137.0 992 0 6 Image Chart
1986 8 30 18 48.5 138.4 994 0 6 Image Chart
1986 8 31 00 49.9 139.9 996 0 6 Image Chart
1986 8 31 06 51.3 141.5 998 0 6 Image Chart
1986 8 31 12 52.4 143.1 998 0 6 Image Chart
1986 8 31 18 53.4 144.6 998 0 6 Image Chart
1986 9 1 00 54.0 146.0 998 0 6 Image Chart
1986 9 1 06 54.5 147.2 998 0 6 Image Chart
1986 9 1 12 54.8 148.5 998 0 6 Image Chart
1986 9 1 18 55.0 150.0 1000 0 6 Image Chart
1986 9 2 00 55.0 152.0 1004 0 6 Image Chart
Japan Meteorological Agency Best Track Data | Correction Date : 1992-10-21
< Typhoon 198612 1986 Season Typhoon 198614 >

Help